createdAt,value
2023-04-08T00:00:01.406Z,201.72
2023-04-08T00:01:01.372Z,199.36
2023-04-08T00:02:01.475Z,201.79
2023-04-08T00:03:01.582Z,198.41
2023-04-08T00:04:01.489Z,196.37
2023-04-08T00:05:01.471Z,197.20
2023-04-08T00:06:01.378Z,199.99
2023-04-08T00:07:01.373Z,191.41
2023-04-08T00:08:01.382Z,197.32
2023-04-08T00:09:01.380Z,192.10
2023-04-08T00:10:01.422Z,196.46
2023-04-08T00:11:01.350Z,199.69
2023-04-08T00:12:01.375Z,197.01
2023-04-08T00:13:01.386Z,201.60
2023-04-08T00:14:01.419Z,201.80
2023-04-08T00:15:01.446Z,198.40
2023-04-08T00:16:01.385Z,201.59
2023-04-08T00:17:01.416Z,196.35
2023-04-08T00:18:01.411Z,198.62
2023-04-08T00:19:01.368Z,194.50
2023-04-08T00:20:01.351Z,195.88
2023-04-08T00:21:01.382Z,196.00
2023-04-08T00:22:01.385Z,192.29
2023-04-08T00:23:01.351Z,193.20
2023-04-08T00:24:01.352Z,197.34
2023-04-08T00:25:01.359Z,193.95
2023-04-08T00:26:01.341Z,197.86
2023-04-08T00:27:01.360Z,199.70
2023-04-08T00:28:01.357Z,191.04
2023-04-08T00:29:01.346Z,194.80
2023-04-08T00:30:01.340Z,198.55
2023-04-08T00:31:01.340Z,189.77
2023-04-08T00:32:01.311Z,191.22
2023-04-08T00:33:01.382Z,190.50
2023-04-08T00:34:01.315Z,193.64
2023-04-08T00:35:01.327Z,193.71
2023-04-08T00:36:01.410Z,194.60
2023-04-08T00:37:01.301Z,193.36
2023-04-08T00:38:01.299Z,190.53
2023-04-08T00:39:01.293Z,191.84
2023-04-08T00:40:01.291Z,193.32
2023-04-08T00:41:01.303Z,189.69
2023-04-08T00:42:01.299Z,190.56
2023-04-08T00:43:01.308Z,186.34
2023-04-08T00:44:01.300Z,188.55
2023-04-08T00:45:01.303Z,188.05
2023-04-08T00:46:01.360Z,186.32
2023-04-08T00:47:01.350Z,182.86
2023-04-08T00:48:01.391Z,188.06
2023-04-08T00:49:01.288Z,182.23
2023-04-08T00:50:01.287Z,182.37
2023-04-08T00:51:01.299Z,185.18
2023-04-08T00:52:01.299Z,185.57
2023-04-08T00:53:01.291Z,183.45
2023-04-08T00:54:01.284Z,181.88
2023-04-08T00:55:01.312Z,184.44
2023-04-08T00:56:01.353Z,178.43
2023-04-08T00:57:01.275Z,179.19
2023-04-08T00:58:01.282Z,178.06
2023-04-08T00:59:01.263Z,182.56
2023-04-08T01:00:01.251Z,179.18
2023-04-08T01:01:01.278Z,183.67
2023-04-08T01:02:01.318Z,182.29
2023-04-08T01:03:01.596Z,184.86
2023-04-08T01:04:01.327Z,178.28
2023-04-08T01:05:01.235Z,182.32
2023-04-08T01:06:01.249Z,190.46
2023-04-08T01:07:01.256Z,181.92
2023-04-08T01:08:01.232Z,184.16
2023-04-08T01:09:01.241Z,182.46
2023-04-08T01:10:01.233Z,184.02
2023-04-08T01:11:01.243Z,184.19
2023-04-08T01:12:01.235Z,181.09
2023-04-08T01:13:01.227Z,182.85
2023-04-08T01:14:01.202Z,180.14
2023-04-08T01:15:01.213Z,180.54
2023-04-08T01:16:01.234Z,184.31
2023-04-08T01:17:01.194Z,181.27
2023-04-08T01:18:01.216Z,186.64
2023-04-08T01:19:01.197Z,182.89
2023-04-08T01:20:01.199Z,183.68
2023-04-08T01:21:01.185Z,183.52
2023-04-08T01:22:01.193Z,186.29
2023-04-08T01:23:01.242Z,185.60
2023-04-08T01:24:01.191Z,185.93
2023-04-08T01:25:01.218Z,186.39
2023-04-08T01:26:01.186Z,188.06
2023-04-08T01:27:01.181Z,187.26
2023-04-08T01:28:01.175Z,185.38
2023-04-08T01:29:01.187Z,186.48
2023-04-08T01:30:01.174Z,183.00
2023-04-08T01:31:01.233Z,186.24
2023-04-08T01:32:01.161Z,184.89
2023-04-08T01:33:01.177Z,189.18
2023-04-08T01:34:01.136Z,188.85
2023-04-08T01:35:01.155Z,190.17
2023-04-08T01:36:01.200Z,188.27
2023-04-08T01:37:01.144Z,191.44
2023-04-08T01:38:01.158Z,191.29
2023-04-08T01:39:01.135Z,192.44
2023-04-08T01:40:01.153Z,188.64
2023-04-08T01:41:01.150Z,185.28
2023-04-08T01:42:01.146Z,186.50
2023-04-08T01:43:01.141Z,184.51
2023-04-08T01:44:01.177Z,188.71
2023-04-08T01:45:01.137Z,181.35
2023-04-08T01:46:01.141Z,182.04
2023-04-08T01:47:01.225Z,181.56
2023-04-08T01:48:01.200Z,182.48
2023-04-08T01:49:01.147Z,183.73
2023-04-08T01:50:01.153Z,183.27
2023-04-08T01:51:01.144Z,183.37
2023-04-08T01:52:01.155Z,182.65
2023-04-08T01:53:01.115Z,183.77
2023-04-08T01:54:01.114Z,186.88
2023-04-08T01:55:01.124Z,185.16
2023-04-08T01:56:01.102Z,184.49
2023-04-08T01:57:01.114Z,185.64
2023-04-08T01:58:01.105Z,182.15
2023-04-08T01:59:01.111Z,183.68
2023-04-08T02:00:01.099Z,181.02
2023-04-08T02:01:01.110Z,183.18
2023-04-08T02:02:01.164Z,183.12
2023-04-08T02:03:01.208Z,181.73
2023-04-08T02:04:01.172Z,182.22
2023-04-08T02:05:01.087Z,185.11
2023-04-08T02:06:01.073Z,185.22
2023-04-08T02:07:01.068Z,184.35
2023-04-08T02:08:01.073Z,184.25
2023-04-08T02:09:01.074Z,182.24
2023-04-08T02:10:01.062Z,179.99
2023-04-08T02:11:01.068Z,183.08
2023-04-08T02:12:01.059Z,182.45
2023-04-08T02:13:01.083Z,180.85
2023-04-08T02:14:01.060Z,183.46
2023-04-08T02:15:01.042Z,185.69
2023-04-08T02:16:01.076Z,184.20
2023-04-08T02:17:01.025Z,182.79
2023-04-08T02:18:01.073Z,182.91
2023-04-08T02:19:01.021Z,179.03
2023-04-08T02:20:01.042Z,183.06
2023-04-08T02:21:01.016Z,181.83
2023-04-08T02:22:01.031Z,179.44
2023-04-08T02:23:01.012Z,178.45
2023-04-08T02:24:02.636Z,173.16
2023-04-08T02:25:01.224Z,179.57
2023-04-08T02:26:01.241Z,176.87
2023-04-08T02:27:01.254Z,176.18
2023-04-08T02:28:01.237Z,180.86
2023-04-08T02:29:01.234Z,174.58
2023-04-08T02:30:01.218Z,178.43
2023-04-08T02:31:01.202Z,180.57
2023-04-08T02:32:01.233Z,181.26
2023-04-08T02:33:01.312Z,182.85
2023-04-08T02:34:01.194Z,179.97
2023-04-08T02:35:01.195Z,180.74
2023-04-08T02:36:01.216Z,183.56
2023-04-08T02:37:01.190Z,183.47
2023-04-08T02:38:01.216Z,180.77
2023-04-08T02:39:01.210Z,183.03
2023-04-08T02:40:01.205Z,180.96
2023-04-08T02:41:01.183Z,182.27
2023-04-08T02:42:01.174Z,185.67
2023-04-08T02:43:01.190Z,185.42
2023-04-08T02:44:01.171Z,179.81
2023-04-08T02:45:01.184Z,184.89
2023-04-08T02:46:01.208Z,182.33
2023-04-08T02:47:01.163Z,182.63
2023-04-08T02:48:01.234Z,184.79
2023-04-08T02:49:01.171Z,186.60
2023-04-08T02:50:01.155Z,182.27
2023-04-08T02:51:01.154Z,185.57
2023-04-08T02:52:01.154Z,184.73
2023-04-08T02:53:01.174Z,186.66
2023-04-08T02:54:01.159Z,184.53
2023-04-08T02:55:01.150Z,185.38
2023-04-08T02:56:01.150Z,180.67
2023-04-08T02:57:01.146Z,185.64
2023-04-08T02:58:01.149Z,183.57
2023-04-08T02:59:01.156Z,184.53
2023-04-08T03:00:01.156Z,185.04
2023-04-08T03:01:01.241Z,182.18
2023-04-08T03:02:01.261Z,179.89
2023-04-08T03:03:01.335Z,180.94
2023-04-08T03:04:01.237Z,179.82
2023-04-08T03:05:01.170Z,183.65
2023-04-08T03:06:01.177Z,177.59
2023-04-08T03:07:01.162Z,178.74
2023-04-08T03:08:01.166Z,178.13
2023-04-08T03:09:01.186Z,176.06
2023-04-08T03:10:01.190Z,177.66
2023-04-08T03:11:01.173Z,177.61
2023-04-08T03:12:01.198Z,176.05
2023-04-08T03:13:01.196Z,171.27
2023-04-08T03:14:01.200Z,173.53
2023-04-08T03:15:01.258Z,175.00
2023-04-08T03:16:01.192Z,174.04
2023-04-08T03:17:01.193Z,175.84
2023-04-08T03:18:01.247Z,173.56
2023-04-08T03:19:01.197Z,170.04
2023-04-08T03:20:01.200Z,173.80
2023-04-08T03:21:01.201Z,175.05
2023-04-08T03:22:01.201Z,171.09
2023-04-08T03:23:01.191Z,172.64
2023-04-08T03:24:01.190Z,173.27
2023-04-08T03:25:01.225Z,172.94
2023-04-08T03:26:01.221Z,174.80
2023-04-08T03:27:01.227Z,170.37
2023-04-08T03:28:01.230Z,176.16
2023-04-08T03:29:01.209Z,167.50
2023-04-08T03:30:01.230Z,175.22
2023-04-08T03:31:01.216Z,174.38
2023-04-08T03:32:01.280Z,174.79
2023-04-08T03:33:01.291Z,173.34
2023-04-08T03:34:01.220Z,180.00
2023-04-08T03:35:01.227Z,177.82
2023-04-08T03:36:01.255Z,173.99
2023-04-08T03:37:01.246Z,179.11
2023-04-08T03:38:01.247Z,177.63
2023-04-08T03:39:01.237Z,176.51
2023-04-08T03:40:01.234Z,177.67
2023-04-08T03:41:01.234Z,178.82
2023-04-08T03:42:01.246Z,176.84
2023-04-08T03:43:01.248Z,174.98
2023-04-08T03:44:01.237Z,175.17
2023-04-08T03:45:01.248Z,175.87
2023-04-08T03:46:01.346Z,176.53
2023-04-08T03:47:01.250Z,176.25
2023-04-08T03:48:01.285Z,175.48
2023-04-08T03:49:01.255Z,172.80
2023-04-08T03:50:01.255Z,174.71
2023-04-08T03:51:01.261Z,178.42
2023-04-08T03:52:01.259Z,172.43
2023-04-08T03:53:01.266Z,170.72
2023-04-08T03:54:01.277Z,172.80
2023-04-08T03:55:01.357Z,171.20
2023-04-08T03:56:01.273Z,170.55
2023-04-08T03:57:01.265Z,169.10
2023-04-08T03:58:01.292Z,169.91
2023-04-08T03:59:01.299Z,170.14
2023-04-08T04:00:01.296Z,168.49
2023-04-08T04:01:01.287Z,171.20
2023-04-08T04:02:01.358Z,168.67
2023-04-08T04:03:01.433Z,168.60
2023-04-08T04:04:01.569Z,173.46
2023-04-08T04:05:01.481Z,169.92
2023-04-08T04:06:01.296Z,171.30
2023-04-08T04:07:01.300Z,169.96
2023-04-08T04:08:01.327Z,171.41
2023-04-08T04:09:01.324Z,163.92
2023-04-08T04:10:01.333Z,168.24
2023-04-08T04:11:01.323Z,168.30
2023-04-08T04:12:01.332Z,166.84
2023-04-08T04:13:01.332Z,164.09
2023-04-08T04:14:01.328Z,166.43
2023-04-08T04:15:01.341Z,170.24
2023-04-08T04:16:01.437Z,167.81
2023-04-08T04:17:01.380Z,164.16
2023-04-08T04:18:01.428Z,167.45
2023-04-08T04:19:01.407Z,166.18
2023-04-08T04:20:01.347Z,164.63
2023-04-08T04:21:01.342Z,167.08
2023-04-08T04:22:01.374Z,163.60
2023-04-08T04:23:01.357Z,164.43
2023-04-08T04:24:01.349Z,162.84
2023-04-08T04:25:01.376Z,165.93
2023-04-08T04:26:01.374Z,167.80
2023-04-08T04:27:01.368Z,168.61
2023-04-08T04:28:01.384Z,172.28
2023-04-08T04:29:01.380Z,170.15
2023-04-08T04:30:01.365Z,170.15
2023-04-08T04:31:01.385Z,173.68
2023-04-08T04:32:01.401Z,170.65
2023-04-08T04:33:01.425Z,175.16
2023-04-08T04:34:01.401Z,171.63
2023-04-08T04:35:01.378Z,177.43
2023-04-08T04:36:01.446Z,176.47
2023-04-08T04:37:01.372Z,177.34
2023-04-08T04:38:01.366Z,177.91
2023-04-08T04:39:01.354Z,176.84
2023-04-08T04:40:01.373Z,177.34
2023-04-08T04:41:01.357Z,174.90
2023-04-08T04:42:01.360Z,178.59
2023-04-08T04:43:01.443Z,176.39
2023-04-08T04:44:01.376Z,175.86
2023-04-08T04:45:01.352Z,177.72
2023-04-08T04:46:01.391Z,180.60
2023-04-08T04:47:01.357Z,178.37
2023-04-08T04:48:01.426Z,176.37
2023-04-08T04:49:01.410Z,177.82
2023-04-08T04:50:01.390Z,179.86
2023-04-08T04:51:01.369Z,177.42
2023-04-08T04:52:01.393Z,177.11
2023-04-08T04:53:01.430Z,173.70
2023-04-08T04:54:01.385Z,176.62
2023-04-08T04:55:01.380Z,175.84
2023-04-08T04:56:01.435Z,179.79
2023-04-08T04:57:01.374Z,174.98
2023-04-08T04:58:01.396Z,178.42
2023-04-08T04:59:01.422Z,176.12
2023-04-08T05:00:02.813Z,176.06
2023-04-08T05:01:01.400Z,178.65
2023-04-08T05:02:01.441Z,179.15
2023-04-08T05:03:01.494Z,176.66
2023-04-08T05:04:01.367Z,176.41
2023-04-08T05:05:01.378Z,174.93
2023-04-08T05:06:01.369Z,173.09
2023-04-08T05:07:01.369Z,172.90
2023-04-08T05:08:01.354Z,171.91
2023-04-08T05:09:01.357Z,174.77
2023-04-08T05:10:01.337Z,179.80
2023-04-08T05:11:01.350Z,176.88
2023-04-08T05:12:01.323Z,176.50
2023-04-08T05:13:01.365Z,173.64
2023-04-08T05:14:01.308Z,177.64
2023-04-08T05:15:01.328Z,176.05
2023-04-08T05:16:01.383Z,178.00
2023-04-08T05:17:01.316Z,177.84
2023-04-08T05:18:01.321Z,179.38
2023-04-08T05:19:01.292Z,180.19
2023-04-08T05:20:01.277Z,179.99
2023-04-08T05:21:01.309Z,178.45
2023-04-08T05:22:01.284Z,179.03
2023-04-08T05:23:01.252Z,178.80
2023-04-08T05:24:01.264Z,185.16
2023-04-08T05:25:01.251Z,181.02
2023-04-08T05:26:01.249Z,180.61
2023-04-08T05:27:01.249Z,183.15
2023-04-08T05:28:01.242Z,185.96
2023-04-08T05:29:01.242Z,182.58
2023-04-08T05:30:01.234Z,182.57
2023-04-08T05:31:01.248Z,183.99
2023-04-08T05:32:01.191Z,182.70
2023-04-08T05:33:01.278Z,179.82
2023-04-08T05:34:01.187Z,186.97
2023-04-08T05:35:01.189Z,182.69
2023-04-08T05:36:01.213Z,181.97
2023-04-08T05:37:01.166Z,184.55
2023-04-08T05:38:01.169Z,183.93
2023-04-08T05:39:03.280Z,186.44
2023-04-08T05:40:01.176Z,186.59
2023-04-08T05:41:01.128Z,186.78
2023-04-08T05:42:01.168Z,187.81
2023-04-08T05:43:01.222Z,190.43
2023-04-08T05:44:01.264Z,193.51
2023-04-08T05:45:01.246Z,191.95
2023-04-08T05:46:01.242Z,193.02
2023-04-08T05:47:01.314Z,193.35
2023-04-08T05:48:01.315Z,192.45
2023-04-08T05:49:01.244Z,192.36
2023-04-08T05:50:01.243Z,194.99
2023-04-08T05:51:01.250Z,195.79
2023-04-08T05:52:01.252Z,193.87
2023-04-08T05:53:01.254Z,194.95
2023-04-08T05:54:01.243Z,196.46
2023-04-08T05:55:01.239Z,194.76
2023-04-08T05:56:01.225Z,191.10
2023-04-08T05:57:01.239Z,194.21
2023-04-08T05:58:01.221Z,195.58
2023-04-08T05:59:01.220Z,192.21
2023-04-08T06:00:01.239Z,193.31
2023-04-08T06:01:01.221Z,193.08
2023-04-08T06:02:01.311Z,193.05
2023-04-08T06:03:01.537Z,191.56
2023-04-08T06:04:01.331Z,186.98
2023-04-08T06:05:01.308Z,191.55
2023-04-08T06:06:01.207Z,190.87
2023-04-08T06:07:01.206Z,188.23
2023-04-08T06:08:01.207Z,190.87
2023-04-08T06:09:01.210Z,188.78
2023-04-08T06:10:01.269Z,185.95
2023-04-08T06:11:01.209Z,185.92
2023-04-08T06:12:01.210Z,185.48
2023-04-08T06:13:01.216Z,182.39
2023-04-08T06:14:01.213Z,179.10
2023-04-08T06:15:01.216Z,178.83
2023-04-08T06:16:01.185Z,176.98
2023-04-08T06:17:01.223Z,179.82
2023-04-08T06:18:01.215Z,183.36
2023-04-08T06:19:01.213Z,180.02
2023-04-08T06:20:01.181Z,181.91
2023-04-08T06:21:01.209Z,183.54
2023-04-08T06:22:01.512Z,180.83
2023-04-08T06:23:01.233Z,185.86
2023-04-08T06:24:01.251Z,183.50
2023-04-08T06:25:01.286Z,183.88
2023-04-08T06:26:01.320Z,184.05
2023-04-08T06:27:01.362Z,182.78
2023-04-08T06:28:01.382Z,180.87
2023-04-08T06:29:01.444Z,183.78
2023-04-08T06:30:01.493Z,173.42
2023-04-08T06:31:01.527Z,174.61
2023-04-08T06:32:01.609Z,175.44
2023-04-08T06:33:01.710Z,175.59
2023-04-08T06:34:01.703Z,169.72
2023-04-08T06:35:01.814Z,173.91
2023-04-08T06:36:01.875Z,171.78
2023-04-08T06:37:01.885Z,169.45
2023-04-08T06:38:01.919Z,165.50
2023-04-08T06:39:02.038Z,159.75
2023-04-08T06:40:02.047Z,161.81
2023-04-08T06:41:02.108Z,160.31
2023-04-08T06:42:02.232Z,160.40
2023-04-08T06:43:02.254Z,146.86
2023-04-08T06:44:02.306Z,143.72
2023-04-08T06:45:02.394Z,158.56
2023-04-08T06:46:02.535Z,149.73
2023-04-08T06:47:02.501Z,153.80
2023-04-08T06:48:02.602Z,150.11
2023-04-08T06:49:02.621Z,132.64
2023-04-08T06:50:02.676Z,140.52
2023-04-08T06:51:02.732Z,113.21
2023-04-08T06:52:02.781Z,99.39
2023-04-08T06:53:02.858Z,93.25
2023-04-08T06:54:02.883Z,91.57
2023-04-08T06:55:02.934Z,84.22
2023-04-08T06:56:02.999Z,91.53
2023-04-08T06:57:03.005Z,85.91
2023-04-08T06:58:03.084Z,88.66
2023-04-08T06:59:03.096Z,96.22
2023-04-08T07:00:03.148Z,90.52
2023-04-08T07:01:03.229Z,91.65
2023-04-08T07:02:03.320Z,82.06
2023-04-08T07:03:03.353Z,75.39
2023-04-08T07:04:03.411Z,70.87
2023-04-08T07:05:03.499Z,59.96
2023-04-08T07:06:03.326Z,58.06
2023-04-08T07:07:03.342Z,75.17
2023-04-08T07:08:03.381Z,87.52
2023-04-08T07:09:03.396Z,110.85
2023-04-08T07:10:03.410Z,114.17
2023-04-08T07:11:03.454Z,108.91
2023-04-08T07:12:03.450Z,112.37
2023-04-08T07:13:03.501Z,120.43
2023-04-08T07:14:03.484Z,125.82
2023-04-08T07:15:03.518Z,129.24
2023-04-08T07:16:03.528Z,142.67
2023-04-08T07:17:03.614Z,132.67
2023-04-08T07:18:03.560Z,144.97
2023-04-08T07:19:03.548Z,148.43
2023-04-08T07:20:03.554Z,141.93
2023-04-08T07:21:03.558Z,143.01
2023-04-08T07:22:03.581Z,139.65
2023-04-08T07:23:03.584Z,144.07
2023-04-08T07:24:03.604Z,147.64
2023-04-08T07:25:03.606Z,146.35
2023-04-08T07:26:03.600Z,145.06
2023-04-08T07:27:03.614Z,148.17
2023-04-08T07:28:03.644Z,153.72
2023-04-08T07:29:03.615Z,149.70
2023-04-08T07:30:03.638Z,150.36
2023-04-08T07:31:03.661Z,148.72
2023-04-08T07:32:03.653Z,160.84
2023-04-08T07:33:03.733Z,158.60
2023-04-08T07:34:03.662Z,153.49
2023-04-08T07:35:03.682Z,149.58
2023-04-08T07:36:03.709Z,150.36
2023-04-08T07:37:03.681Z,150.11
2023-04-08T07:38:03.669Z,148.75
2023-04-08T07:39:03.664Z,149.03
2023-04-08T07:40:03.675Z,148.60
2023-04-08T07:41:03.671Z,144.11
2023-04-08T07:42:03.702Z,144.76
2023-04-08T07:43:03.695Z,144.21
2023-04-08T07:44:03.696Z,146.05
2023-04-08T07:45:03.721Z,141.07
2023-04-08T07:46:03.733Z,148.99
2023-04-08T07:47:03.700Z,149.60
2023-04-08T07:48:03.802Z,142.85
2023-04-08T07:49:03.724Z,135.99
2023-04-08T07:50:03.711Z,139.58
2023-04-08T07:51:09.695Z,144.36
2023-04-08T07:52:04.713Z,144.43
2023-04-08T07:53:03.732Z,138.70
2023-04-08T07:54:03.724Z,134.68
2023-04-08T07:55:03.720Z,137.26
2023-04-08T07:56:03.693Z,128.84
2023-04-08T07:57:03.688Z,130.93
2023-04-08T07:58:03.682Z,131.47
2023-04-08T07:59:03.690Z,128.36
2023-04-08T08:00:03.689Z,128.17
2023-04-08T08:01:03.684Z,133.47
2023-04-08T08:02:03.746Z,131.74
2023-04-08T08:03:03.771Z,126.70
2023-04-08T08:04:03.787Z,127.57
2023-04-08T08:05:03.718Z,129.86
2023-04-08T08:06:03.632Z,127.16
2023-04-08T08:07:03.640Z,130.15
2023-04-08T08:08:03.624Z,133.92
2023-04-08T08:09:03.615Z,132.67
2023-04-08T08:10:03.639Z,134.68
2023-04-08T08:11:03.611Z,134.49
2023-04-08T08:12:03.599Z,133.76
2023-04-08T08:13:03.622Z,133.24
2023-04-08T08:14:03.596Z,122.14
2023-04-08T08:15:03.604Z,131.47
2023-04-08T08:16:03.650Z,131.65
2023-04-08T08:17:03.576Z,132.61
2023-04-08T08:18:03.599Z,136.90
2023-04-08T08:19:03.557Z,130.65
2023-04-08T08:20:03.578Z,138.27
2023-04-08T08:21:03.551Z,144.06
2023-04-08T08:22:03.540Z,146.13
2023-04-08T08:23:03.546Z,144.47
2023-04-08T08:24:03.539Z,148.01
2023-04-08T08:25:03.557Z,144.57
2023-04-08T08:26:03.540Z,152.22
2023-04-08T08:27:03.521Z,157.20
2023-04-08T08:28:03.512Z,157.59
2023-04-08T08:29:03.505Z,150.81
2023-04-08T08:30:03.500Z,148.85
2023-04-08T08:31:03.535Z,155.45
2023-04-08T08:32:03.471Z,155.78
2023-04-08T08:33:03.560Z,161.81
2023-04-08T08:34:03.459Z,156.59
2023-04-08T08:35:03.465Z,164.49
2023-04-08T08:36:03.477Z,162.53
2023-04-08T08:37:03.443Z,159.66
2023-04-08T08:38:03.456Z,163.05
2023-04-08T08:39:03.434Z,162.92
2023-04-08T08:40:03.449Z,165.21
2023-04-08T08:41:03.431Z,166.57
2023-04-08T08:42:03.424Z,173.22
2023-04-08T08:43:03.434Z,171.68
2023-04-08T08:44:03.410Z,174.32
2023-04-08T08:45:03.391Z,170.14
2023-04-08T08:46:03.403Z,163.31
2023-04-08T08:47:03.459Z,165.46
2023-04-08T08:48:03.468Z,169.94
2023-04-08T08:49:03.464Z,160.71
2023-04-08T08:50:03.483Z,169.47
2023-04-08T08:51:03.550Z,175.93
2023-04-08T08:52:03.587Z,171.11
2023-04-08T08:53:03.627Z,172.02
2023-04-08T08:54:03.681Z,175.58
2023-04-08T08:55:13.051Z,174.59
2023-04-08T08:56:16.642Z,174.74
2023-04-08T08:57:04.727Z,174.96
2023-04-08T08:58:03.743Z,175.05
2023-04-08T08:59:03.727Z,174.04
2023-04-08T09:00:03.703Z,166.95
2023-04-08T09:01:03.709Z,167.38
2023-04-08T09:02:03.751Z,169.86
2023-04-08T09:03:03.794Z,156.74
2023-04-08T09:04:03.779Z,162.03
2023-04-08T09:05:03.883Z,157.36
2023-04-08T09:06:03.673Z,155.14
2023-04-08T09:07:03.677Z,157.94
2023-04-08T09:08:03.657Z,145.03
2023-04-08T09:09:03.660Z,145.95
2023-04-08T09:10:03.656Z,144.24
2023-04-08T09:11:03.638Z,142.85
2023-04-08T09:12:03.677Z,143.23
2023-04-08T09:13:03.632Z,140.50
2023-04-08T09:14:03.614Z,140.02
2023-04-08T09:15:03.623Z,141.00
2023-04-08T09:16:03.687Z,137.67
2023-04-08T09:17:03.619Z,134.68
2023-04-08T09:18:03.605Z,138.09
2023-04-08T09:19:03.598Z,134.05
2023-04-08T09:20:03.601Z,137.70
2023-04-08T09:21:03.595Z,131.12
2023-04-08T09:22:03.571Z,138.81
2023-04-08T09:23:03.660Z,138.18
2023-04-08T09:24:03.551Z,140.69
2023-04-08T09:25:03.551Z,139.59
2023-04-08T09:26:03.547Z,126.13
2023-04-08T09:27:03.575Z,130.19
2023-04-08T09:28:03.617Z,132.24
2023-04-08T09:29:14.247Z,126.04
2023-04-08T09:30:04.631Z,126.51
2023-04-08T09:31:03.634Z,126.98
2023-04-08T09:32:03.705Z,127.39
2023-04-08T09:33:03.649Z,133.54
2023-04-08T09:34:03.598Z,132.86
2023-04-08T09:35:04.814Z,131.53
2023-04-08T09:36:03.613Z,133.17
2023-04-08T09:37:03.590Z,135.54
2023-04-08T09:38:03.570Z,137.80
2023-04-08T09:39:03.590Z,135.36
2023-04-08T09:40:03.575Z,141.69
2023-04-08T09:41:03.575Z,130.31
2023-04-08T09:42:03.550Z,129.26
2023-04-08T09:43:03.555Z,131.60
2023-04-08T09:44:03.552Z,131.25
2023-04-08T09:45:03.545Z,126.29
2023-04-08T09:46:03.568Z,129.09
2023-04-08T09:47:03.530Z,131.13
2023-04-08T09:48:03.565Z,135.46
2023-04-08T09:49:03.516Z,127.03
2023-04-08T09:50:03.512Z,128.91
2023-04-08T09:51:03.531Z,128.98
2023-04-08T09:52:03.507Z,124.11
2023-04-08T09:53:03.543Z,131.66
2023-04-08T09:54:03.495Z,113.56
2023-04-08T09:55:03.492Z,128.54
2023-04-08T09:56:03.471Z,133.21
2023-04-08T09:57:03.463Z,134.22
2023-04-08T09:58:03.459Z,125.00
2023-04-08T09:59:04.827Z,129.62
2023-04-08T10:00:03.445Z,136.34
2023-04-08T10:01:03.509Z,131.78
2023-04-08T10:02:03.519Z,136.82
2023-04-08T10:03:03.646Z,131.92
2023-04-08T10:04:03.522Z,130.38
2023-04-08T10:05:04.965Z,139.39
2023-04-08T10:06:03.414Z,135.83
2023-04-08T10:07:03.429Z,131.08
2023-04-08T10:08:03.419Z,131.89
2023-04-08T10:09:03.393Z,130.78
2023-04-08T10:10:03.388Z,139.98
2023-04-08T10:11:03.397Z,135.02
2023-04-08T10:12:03.401Z,138.16
2023-04-08T10:13:03.380Z,140.84
2023-04-08T10:14:03.377Z,135.20
2023-04-08T10:15:03.372Z,132.29
2023-04-08T10:16:03.363Z,136.68
2023-04-08T10:17:03.407Z,135.03
2023-04-08T10:18:03.429Z,140.41
2023-04-08T10:19:03.356Z,137.75
2023-04-08T10:20:03.353Z,136.21
2023-04-08T10:21:03.338Z,132.83
2023-04-08T10:22:03.314Z,134.17
2023-04-08T10:23:03.338Z,135.59
2023-04-08T10:24:03.317Z,135.01
2023-04-08T10:25:03.319Z,142.54
2023-04-08T10:26:03.313Z,136.70
2023-04-08T10:27:03.311Z,134.09
2023-04-08T10:28:03.290Z,135.85
2023-04-08T10:29:03.276Z,136.06
2023-04-08T10:30:03.282Z,135.98
2023-04-08T10:31:03.278Z,137.00
2023-04-08T10:33:03.327Z,144.57
2023-04-08T10:34:03.248Z,134.57
2023-04-08T10:35:03.263Z,139.16
2023-04-08T10:36:03.281Z,139.11
2023-04-08T10:37:03.245Z,134.37
2023-04-08T10:38:03.251Z,131.31
2023-04-08T10:39:03.233Z,128.58
2023-04-08T10:40:03.227Z,135.68
2023-04-08T10:41:03.204Z,138.88
2023-04-08T10:42:03.196Z,136.95
2023-04-08T10:43:03.192Z,135.68
2023-04-08T10:44:03.224Z,129.71
2023-04-08T10:45:03.172Z,132.72
2023-04-08T10:46:03.215Z,126.55
2023-04-08T10:47:03.177Z,129.19
2023-04-08T10:48:03.259Z,134.01
2023-04-08T10:49:03.180Z,134.99
2023-04-08T10:50:03.143Z,137.23
2023-04-08T10:51:03.138Z,130.05
2023-04-08T10:52:03.160Z,139.22
2023-04-08T10:53:03.235Z,131.06
2023-04-08T10:54:03.293Z,129.85
2023-04-08T10:55:03.344Z,122.81
2023-04-08T10:56:03.409Z,120.22
2023-04-08T10:57:03.482Z,114.49
2023-04-08T10:58:03.537Z,121.17
2023-04-08T10:59:03.592Z,115.42
2023-04-08T11:00:03.664Z,108.06
2023-04-08T11:01:03.770Z,103.86
2023-04-08T11:02:03.858Z,102.15
2023-04-08T11:03:04.064Z,101.30
2023-04-08T11:04:04.101Z,116.82
2023-04-08T11:05:03.944Z,110.55
2023-04-08T11:06:04.023Z,111.06
2023-04-08T11:07:04.077Z,114.11
2023-04-08T11:08:04.137Z,106.74
2023-04-08T11:09:04.224Z,109.15
2023-04-08T11:10:04.267Z,101.35
2023-04-08T11:11:04.371Z,107.88
2023-04-08T11:12:04.378Z,101.11
2023-04-08T11:13:04.437Z,101.05
2023-04-08T11:14:04.522Z,96.42
2023-04-08T11:15:04.588Z,102.24
2023-04-08T11:17:04.623Z,83.09
2023-04-08T11:18:04.653Z,90.72
2023-04-08T11:19:04.606Z,94.46
2023-04-08T11:20:04.619Z,78.82
2023-04-08T11:21:04.610Z,85.34
2023-04-08T11:22:04.594Z,92.85
2023-04-08T11:23:04.596Z,82.49
2023-04-08T11:24:04.630Z,73.61
2023-04-08T11:25:04.575Z,76.10
2023-04-08T11:26:06.173Z,72.52
2023-04-08T11:27:04.557Z,79.31
2023-04-08T11:28:04.554Z,86.06
2023-04-08T11:29:04.553Z,86.07
2023-04-08T11:30:04.614Z,78.14
2023-04-08T11:31:04.570Z,76.90
2023-04-08T11:32:04.552Z,88.89
2023-04-08T11:33:04.567Z,72.04
2023-04-08T11:34:04.516Z,81.43
2023-04-08T11:35:04.507Z,79.81
2023-04-08T11:36:04.759Z,72.60
2023-04-08T11:37:04.614Z,75.00
2023-04-08T11:38:04.650Z,81.93
2023-04-08T11:39:04.710Z,70.48
2023-04-08T11:40:04.766Z,76.15
2023-04-08T11:41:04.845Z,68.72
2023-04-08T11:42:04.903Z,74.43
2023-04-08T11:43:04.969Z,75.54
2023-04-08T11:44:05.027Z,66.82
2023-04-08T11:45:05.097Z,74.70
2023-04-08T11:46:05.186Z,76.89
2023-04-08T11:47:05.256Z,81.36
2023-04-08T11:48:05.329Z,77.17
2023-04-08T11:49:05.345Z,71.31
2023-04-08T11:50:05.415Z,79.44
2023-04-08T11:51:05.487Z,77.31
2023-04-08T11:52:05.549Z,76.15
2023-04-08T11:53:05.598Z,67.53
2023-04-08T11:54:05.643Z,66.93
2023-04-08T11:55:05.699Z,77.22
2023-04-08T11:56:05.764Z,76.20
2023-04-08T11:57:05.803Z,64.88
2023-04-08T11:58:05.880Z,71.00
2023-04-08T11:59:05.937Z,75.25
2023-04-08T12:00:06.008Z,68.04
2023-04-08T12:01:06.027Z,67.31
2023-04-08T12:02:06.137Z,72.70
2023-04-08T12:03:06.185Z,64.18
2023-04-08T12:04:06.273Z,73.56
2023-04-08T12:05:06.283Z,75.26
2023-04-08T12:06:06.289Z,74.47
2023-04-08T12:07:06.342Z,69.47
2023-04-08T12:08:06.426Z,62.37
2023-04-08T12:09:06.489Z,68.15
2023-04-08T12:10:06.562Z,65.08
2023-04-08T12:11:19.207Z,60.88
2023-04-08T12:12:07.602Z,58.91
2023-04-08T12:13:06.598Z,62.52
2023-04-08T12:14:06.582Z,63.10
2023-04-08T12:15:06.595Z,50.81
2023-04-08T12:16:06.615Z,63.27
2023-04-08T12:17:06.590Z,60.14
2023-04-08T12:18:06.664Z,63.48
2023-04-08T12:19:06.571Z,60.24
2023-04-08T12:20:06.561Z,48.77
2023-04-08T12:21:06.582Z,60.37
2023-04-08T12:22:06.682Z,60.82
2023-04-08T12:23:06.722Z,62.58
2023-04-08T12:24:06.779Z,64.29
2023-04-08T12:25:06.829Z,61.69
2023-04-08T12:26:06.882Z,63.74
2023-04-08T12:27:06.949Z,60.27
2023-04-08T12:28:07.021Z,64.99
2023-04-08T12:29:07.082Z,70.73
2023-04-08T12:30:07.098Z,66.44
2023-04-08T12:31:07.162Z,62.35
2023-04-08T12:32:07.230Z,76.88
2023-04-08T12:33:07.311Z,69.25